Main page
METAR-TAF:

METAR-TAF

Airports :

Mahilyow Airport

Mogilev, Belarus

latitude: 53-57-18N, longitude: 030-05-42E, elevation: 194 m

Current weather observation

The report was made 7 hours and 42 minutes ago, at 13:30 UTC
Wind 6 kt from the Southwest
Temperature 9°C
Humidity 46%
Pressure 1017 hPa
Visibility 10 km or more
Scattered clouds at a height of 2600 ft

METAR: UMOO 201330Z 22003MPS 9999 SCT026 09/M02 Q1017 R13/CLRD// NOSIG

Time: 00:12 (21:12 UTC)

Forecast

The report was made 10 hours and 10 minutes ago, at 11:02 UTC
Forecast valid from 20 at 12 UTC to 20 at 21 UTC
Wind 12 kt from the South/Southwest
Visibility 10 km or more
Scattered clouds at a height of 1500 ft
Temporary
from 20 at 18 UTC to 20 at 21 UTC
Wind 4 kt from variable directions
Visibility: 3000 m
Broken clouds at a height of 700 ft
mist

TAF: UMOO 201102Z 2012/2021 21006MPS 9999 SCT015 TEMPO 2018/2021 VRB02MPS 3000 BR BKN007

Weather observations and forecasts of more than 4000 airports (METAR and TAF reports).

The available stations are represented by yellow and red dots on the map.

Hover mouse over dot to see the name of the station.

Then click to see weather observations and forecasts.

To change the map : click on the green buttons with a black cross to zoom in, on the green button with a dash to zoom out, or on the green arrows for adjacent maps.


METAR-TAF: